map of KZO home
KZO - Airport
Location
City:  Kyzylorda, Qyzylorda, Kazakhstan
Near (Alt.):Kzyl-Orda
Name:Kyzylorda Airport
ICAO:UAOO
IATA:KZO

Details
Type:Airport (Aerodrome, Airfield)
Use:Public/Civil, International (customs port of entry)
Latitude:4442'22"N (44.706111)
Longitude:6535'30"E (65.591667)
Elevation:430 ft (131 m)
Variation:7.30E (WMM2015 magnetic declination)
0.06 annual change
Runways:1
Longest:8858 × 148 ft (2700 × 45 m), paved

Weather
METAR:UAOO 161700Z 12002MPS 9000 -SN OVC017 M03/M03 Q1032 NOSIG RMK QFE762/1016

Related Locations
Nearby:
Farthest:IPC: 11190 mi / 18008 km
Easter Island (Isla de Pascua, Rapa Nui) [Mataveri Intl], VS, CL

Find:

   beyond  
but within

Other Information
Maps:
NOTAMs:
Links:
Sources:

  
  • flag of Kazakhstan
  

Sectional Chart

Flight Planning
at skyvector.com

Satellite Image

Google Maps Satellite view

 

Copyright © 2004-2018 Karl L. Swartz. All rights reserved.
The Great Circle Mapper name and logo are trademarks of the Great Circle Mapper.
All other trademarks mentioned herein belong to their respective owners.
Please see credits for attibutions and further copyright information.

  Follow gcmap on Facebook Follow gcmap on Twitter Follow gcmap on Google+ GCmap on LinkedIn

hCard Microformat

Geo Microformat